Tiempo atmosférico en la estación meteorológica de Alosno, Huelva (276 m.)



Fecha
DESCASC
Temp. máxima en grados centígrados (hora)
DESCASC
Temp. mínima en grados centígrados (hora)
DESCASC
Temp. media en grados centígrados
DESCASC
Racha de viento máxima en m/sg (hora)
DESCASC
Velocidad máxima media en intervalos de 10 minutos(hora)
DESCASC
Precipitaciones diarias en mm
DESCASC
Precipitaciones de 00:00 a 06:00 en mm
DESCASC
Precipitaciones de 06:00 a 12:00 en mm
DESCASC
Precipitaciones de 12:00 a 18:00 en mm
DESCASC
Precipitaciones de 18:00 a 24:00 en mm
DESCASC

Gráficas

Temp. máximas Temp. mínimas Temp. medias Precipitaciones Rachas de viento máximas Velocidades máximas media en intervalos de 10 minutos

Datos horarios

Fecha y hora oficial Temperatura (ºC) Velocidad del viento (km/h) Dirección del viento Racha (km/h) Dirección de racha Precipitación (mm) Presión (hPa) Tendencia (hPa) Humedad (%)
2019-04-17 23:00:00 11.7 10 Sur 15 Sur 0 -- -- 90
2019-04-17 22:00:00 11.8 10 Sur 19 Sur 0 -- -- 89
2019-04-17 21:00:00 11.7 15 Sur 26 Sudoeste 0 -- -- 87
2019-04-17 20:00:00 12.1 12 Sudoeste 28 Sudeste 0.6 -- -- 84
2019-04-17 19:00:00 12.8 12 Sudeste 30 Sur 0.6 -- -- 77
2019-04-17 18:00:00 15 13 Sudoeste 35 Oeste 0 -- -- 61
2019-04-17 17:00:00 15.3 15 Sudoeste 31 Sudoeste 0 -- -- 70
2019-04-17 16:00:00 14.1 17 Sudoeste 43 Sudoeste 0 -- -- 73
2019-04-17 15:00:00 14.6 25 Sur 48 Sudoeste 0.2 -- -- 91
2019-04-17 14:00:00 16.4 31 Sur 51 Sur 0 -- -- 76
2019-04-17 13:00:00 16.7 36 Sur 54 Sur 0 -- -- 76
2019-04-17 12:00:00 15.8 30 Sur 51 Sur 0 -- -- 82
2019-04-17 11:00:00 13.9 15 Sur 32 Sur 0 -- -- 92
2019-04-17 10:00:00 12.7 14 Sudeste 29 Sudeste 0 -- -- 91
2019-04-17 09:00:00 12.9 12 Sur 21 Sudeste 0 -- -- 85
2019-04-17 08:00:00 12.7 9 Sudeste 21 Sudeste 0 -- -- 85
2019-04-17 07:00:00 11.5 8 Sudeste 17 Sudeste 0 -- -- 91
2019-04-17 06:00:00 11.5 12 Sudeste 18 Sudeste 0 -- -- 92
2019-04-17 05:00:00 11.6 7 Sudeste 15 Sudeste 0 -- -- 94
2019-04-17 04:00:00 11.6 8 Sudeste 14 Sudeste 0 -- -- 95
2019-04-17 03:00:00 12 10 Sudeste 14 Sudeste 0 -- -- 91
2019-04-17 02:00:00 12.3 5 Sur 17 Sudoeste 0 -- -- 86
2019-04-17 01:00:00 12.9 13 Sudoeste 20 Sudoeste 0 -- -- 78
2019-04-17 00:00:00 13.6 12 Sudoeste 20 Sudoeste 0 -- -- 65
2019-04-16 23:00:00 14.4 14 Sudoeste 22 Sur 0 -- -- 63
2019-04-16 22:00:00 15.3 15 Sur 24 Sur 0 -- -- 65
2019-04-16 21:00:00 17.3 16 Sur 35 Sur 0 -- -- 56
2019-04-16 20:00:00 19.8 24 Sur 41 Sur 0 -- -- 42
2019-04-16 19:00:00 21.7 23 Sur 42 Sur 0 -- -- 28
2019-04-16 18:00:00 22.2 18 Sur 39 Sur 0 -- -- 39
2019-04-16 17:00:00 22.2 17 Sur 35 Sudoeste 0 -- -- 33
2019-04-16 16:00:00 22 19 Sur 39 Sudoeste 0 -- -- 35
2019-04-16 15:00:00 20.6 21 Sur 33 Sur 0 -- -- 38
2019-04-16 14:00:00 19.8 17 Sur 31 Sur 0 -- -- 48
2019-04-16 13:00:00 19.3 14 Sur 28 Sur 0 -- -- 49
2019-04-16 12:00:00 17.7 12 Sudeste 25 Sur 0 -- -- 60
2019-04-16 11:00:00 16.1 8 Sudeste 27 Este 0 -- -- 68
2019-04-16 10:00:00 14.3 8 Sudeste 18 Este 0 -- -- 75
2019-04-16 09:00:00 11.6 9 Este 15 Sudeste 0 -- -- 90
2019-04-16 08:00:00 9 3 Este 6 Nordeste 0 -- -- 100
2019-04-16 07:00:00 8.5 4 Noroeste 10 Noroeste 0 -- -- 99
2019-04-16 06:00:00 8.9 4 Noroeste 16 Noroeste 0 -- -- 98
2019-04-16 05:00:00 9.4 6 Noroeste 15 Noroeste 0 -- -- 97
2019-04-16 04:00:00 9.5 7 Noroeste 18 Noroeste 0 -- -- 95
2019-04-16 03:00:00 10.1 8 Noroeste 24 Noroeste 0 -- -- 93
2019-04-16 02:00:00 10.8 15 Noroeste 24 Noroeste 0 -- -- 91
2019-04-16 01:00:00 11.4 12 Noroeste 19 Noroeste 0 -- -- 87
2019-04-16 00:00:00 12.5 12 Noroeste 19 Noroeste 0 -- -- 82
2019-04-15 23:00:00 12.8 6 Noroeste 19 Noroeste 0 -- -- 78
2019-04-15 22:00:00 14.6 12 Noroeste 28 Oeste 0 -- -- 68
2019-04-15 21:00:00 16.2 15 Oeste 32 Noroeste 0 -- -- 61
2019-04-15 20:00:00 18.8 19 Oeste 36 Noroeste 0 -- -- 53
2019-04-15 19:00:00 20.1 20 Noroeste 39 Noroeste 0 -- -- 51
2019-04-15 18:00:00 20.4 17 Oeste 38 Noroeste 0 -- -- 56
2019-04-15 17:00:00 20.2 22 Noroeste 40 Oeste 0 -- -- 58
2019-04-15 16:00:00 20.9 21 Noroeste 38 Oeste 0 -- -- 56
2019-04-15 15:00:00 20.5 21 Noroeste 33 Noroeste 0 -- -- 55
2019-04-15 14:00:00 20.6 19 Noroeste 33 Noroeste 0 -- -- 54
2019-04-15 13:00:00 19.3 15 Noroeste 34 Noroeste 0 -- -- 53
2019-04-15 12:00:00 17.2 19 Noroeste 37 Noroeste 0 -- -- 73
2019-04-15 11:00:00 16.1 20 Noroeste 29 Noroeste 0 -- -- 78
2019-04-15 10:00:00 14.5 6 Noroeste 16 Noroeste 0 -- -- 91
2019-04-15 09:00:00 12.9 10 Noroeste 15 Noroeste 0 -- -- 94
2019-04-15 08:00:00 12.5 5 Oeste 11 Noroeste 0 -- -- 91
2019-04-15 07:00:00 12.7 2 Sur 8 Oeste 0 -- -- 83
2019-04-15 06:00:00 13 3 Sudoeste 6 Noroeste 0 -- -- 78
2019-04-15 05:00:00 15.1 0 Calma 6 Este 0 -- -- 71
2019-04-15 04:00:00 16 0 Calma 4 Este 0 -- -- 66
2019-04-15 03:00:00 16.7 4 Este 7 Este 0 -- -- 65
2019-04-15 02:00:00 16.4 3 Este 5 Este 0 -- -- 67
2019-04-15 01:00:00 17.8 4 Sudeste 14 Sudoeste 0 -- -- 58
2019-04-15 00:00:00 18.6 12 Sudoeste 17 Sudoeste 0 -- -- 55
2019-04-14 23:00:00 18.7 12 Sur 19 Sudoeste 0 -- -- 56
2019-04-14 22:00:00 19.4 12 Sudoeste 22 Sur 0 -- -- 55
2019-04-14 21:00:00 20.2 17 Sudoeste 21 Sudoeste 0 -- -- 55
2019-04-14 20:00:00 21.4 19 Sudoeste 28 Sur 0 -- -- 51
2019-04-14 19:00:00 22.9 17 Sudoeste 30 Sur 0 -- -- 49
2019-04-14 18:00:00 24.3 12 Sur 23 Sudoeste 0 -- -- 50
2019-04-14 17:00:00 24.3 12 Sudoeste 21 Sur 0 -- -- 51
2019-04-14 16:00:00 24.6 9 Sudoeste 17 Sudoeste 0 -- -- 50
2019-04-14 15:00:00 23 7 Este 24 Sur 0 -- -- 53
2019-04-14 14:00:00 22.5 9 Sudeste 20 Sudeste 0 -- -- 56
2019-04-14 13:00:00 21.8 6 Sur 13 Este 0 -- -- 58
2019-04-14 12:00:00 20.4 7 Sudeste 14 Sur 0 -- -- 65
2019-04-14 11:00:00 18.3 6 Este 11 Este 0 -- -- 73
2019-04-14 10:00:00 16.1 6 Este 9 Este 0 -- -- 81
2019-04-14 09:00:00 12.2 3 Sudoeste 13 Noroeste 0 -- -- 94
2019-04-14 08:00:00 10.9 8 Noroeste 13 Noroeste 0 -- -- 95
2019-04-14 07:00:00 11.4 5 Noroeste 14 Noroeste 0 -- -- 93
2019-04-14 06:00:00 12.2 9 Noroeste 19 Noroeste 0 -- -- 91
2019-04-14 05:00:00 12.4 12 Noroeste 16 Noroeste 0 -- -- 90
2019-04-14 04:00:00 12.6 6 Noroeste 15 Noroeste 0 -- -- 92
2019-04-14 03:00:00 13.1 11 Noroeste 17 Noroeste 0 -- -- 92
2019-04-14 02:00:00 13.4 13 Noroeste 21 Noroeste 0 -- -- 91
2019-04-14 01:00:00 14.5 12 Noroeste 21 Noroeste 0 -- -- 83
2019-04-14 00:00:00 15.4 11 Noroeste 25 Noroeste 0 -- -- 78
2019-04-13 23:00:00 16.8 14 Noroeste 22 Noroeste 0 -- -- 66
2019-04-13 22:00:00 17.5 9 Sudoeste 17 Sudoeste 0 -- -- 49
2019-04-13 21:00:00 18.5 12 Sudoeste 21 Sudoeste 0 -- -- 47
2019-04-13 20:00:00 20.7 16 Sudoeste 28 Sur 0 -- -- 44
2019-04-13 19:00:00 21.9 19 Sudoeste 29 Sudoeste 0 -- -- 41
2019-04-13 18:00:00 23.4 10 Oeste 25 Noroeste 0 -- -- 32
2019-04-13 17:00:00 22.9 13 Noroeste 25 Oeste 0 -- -- 34
2019-04-13 16:00:00 23.1 13 Noroeste 22 Oeste 0 -- -- 34
2019-04-13 15:00:00 22.5 9 Oeste 20 Oeste 0 -- -- 35
2019-04-13 14:00:00 21.3 8 Noroeste 23 Noroeste 0 -- -- 39
2019-04-13 13:00:00 20.7 8 Oeste 15 Oeste 0 -- -- 41
2019-04-13 12:00:00 19.1 4 Norte 9 Noroeste 0 -- -- 52
2019-04-13 11:00:00 16.5 5 Noroeste 8 Noroeste 0 -- -- 65
2019-04-13 10:00:00 11.1 6 Noroeste 14 Noroeste 0 -- -- 86
2019-04-13 09:00:00 9.8 8 Noroeste 14 Oeste 0 -- -- 89
2019-04-13 08:00:00 8.7 10 Noroeste 14 Noroeste 0 -- -- 92
2019-04-13 07:00:00 8.9 9 Noroeste 19 Noroeste 0 -- -- 90
2019-04-13 06:00:00 8.9 12 Noroeste 19 Noroeste 0 -- -- 90
2019-04-13 05:00:00 8.9 12 Noroeste 20 Noroeste 0 -- -- 91
2019-04-13 04:00:00 9.3 13 Noroeste 22 Noroeste 0 -- -- 88
2019-04-13 03:00:00 10.4 13 Noroeste 19 Noroeste 0 -- -- 82
2019-04-13 02:00:00 10.9 14 Noroeste 20 Oeste 0 -- -- 80
2019-04-13 01:00:00 12.5 13 Noroeste 18 Noroeste 0 -- -- 73
2019-04-13 00:00:00 13.4 13 Noroeste 19 Noroeste 0 -- -- 68
2019-04-12 23:00:00 15.4 12 Oeste 21 Oeste 0 -- -- 54
2019-04-12 22:00:00 17 4 Noroeste 9 Norte 0 -- -- 44
2019-04-12 21:00:00 18.5 7 Noroeste 21 Norte 0 -- -- 41
2019-04-12 20:00:00 20.1 13 Norte 24 Noroeste 0 -- -- 34
2019-04-12 19:00:00 20.9 13 Norte 27 Norte 0 -- -- 30
2019-04-12 18:00:00 21.3 12 Noroeste 23 Noroeste 0 -- -- 31
2019-04-12 17:00:00 21.4 14 Norte 25 Norte 0 -- -- 33
2019-04-12 16:00:00 21.2 8 Norte 26 Oeste 0 -- -- 32
2019-04-12 15:00:00 20.7 8 Oeste 24 Noroeste 0 -- -- 37
2019-04-12 14:00:00 19.8 8 Noroeste 19 Oeste 0 -- -- 39
2019-04-12 13:00:00 18.5 8 Noroeste 17 Noroeste 0 -- -- 50
2019-04-12 12:00:00 15.9 9 Noroeste 17 Oeste 0 -- -- 63
2019-04-12 11:00:00 12.7 10 Noroeste 17 Oeste 0 -- -- 77
2019-04-12 10:00:00 9.9 10 Oeste 21 Noroeste 0 -- -- 87
2019-04-12 09:00:00 7.8 14 Noroeste 22 Noroeste 0 -- -- 94
2019-04-12 08:00:00 7.2 11 Noroeste 22 Noroeste 0 -- -- 95
2019-04-12 07:00:00 7.6 10 Noroeste 21 Noroeste 0 -- -- 93
2019-04-12 06:00:00 7.9 8 Oeste 20 Noroeste 0 -- -- 93
2019-04-12 05:00:00 8.7 11 Noroeste 20 Noroeste 0 -- -- 90
2019-04-12 04:00:00 9.3 12 Noroeste 22 Noroeste 0 -- -- 88
2019-04-12 03:00:00 10.1 14 Noroeste 22 Noroeste 0 -- -- 85
2019-04-12 02:00:00 10.7 13 Noroeste 18 Noroeste 0 -- -- 82
2019-04-12 01:00:00 11.4 14 Noroeste 19 Noroeste 0 -- -- 78
2019-04-12 00:00:00 11.7 11 Noroeste 20 Noroeste 0 -- -- 78
2019-04-11 23:00:00 13 13 Noroeste 20 Oeste 0 -- -- 73
2019-04-11 22:00:00 14.7 9 Noroeste 14 Noroeste 0 -- -- 54
2019-04-11 21:00:00 16.8 10 Noroeste 23 Noroeste 0 -- -- 47
2019-04-11 20:00:00 18.5 14 Noroeste 27 Noroeste 0 -- -- 41
2019-04-11 19:00:00 19 13 Norte 30 Noroeste 0 -- -- 40
2019-04-11 18:00:00 19.3 14 Norte 28 Norte 0 -- -- 40
2019-04-11 17:00:00 19.1 15 Norte 30 Norte 0 -- -- 38
2019-04-11 16:00:00 18.8 13 Norte 31 Noroeste 0 -- -- 43
2019-04-11 15:00:00 17.8 15 Norte 29 Noroeste 0 -- -- 50
2019-04-11 14:00:00 16.4 12 Norte 29 Noroeste 0 -- -- 58
2019-04-11 13:00:00 14.9 13 Noroeste 28 Noroeste 0 -- -- 69
2019-04-11 12:00:00 12.5 17 Noroeste 27 Noroeste 0 -- -- 76
2019-04-11 11:00:00 10.1 17 Noroeste 27 Noroeste 0 -- -- 89
2019-04-11 10:00:00 8.5 13 Noroeste 24 Noroeste 0 -- -- 96
2019-04-11 09:00:00 7 13 Noroeste 22 Noroeste 0 -- -- 98
2019-04-11 08:00:00 6.3 13 Noroeste 20 Noroeste 0 -- -- 97
2019-04-11 07:00:00 6.7 12 Noroeste 20 Noroeste 0 -- -- 97
2019-04-11 06:00:00 7 12 Noroeste 26 Noroeste 0 -- -- 96
2019-04-11 05:00:00 7.2 11 Noroeste 22 Noroeste 0 -- -- 94
2019-04-11 04:00:00 8 17 Noroeste 26 Noroeste 0 -- -- 91
2019-04-11 03:00:00 8.6 10 Noroeste 23 Noroeste 0 -- -- 87
2019-04-11 02:00:00 9.5 12 Noroeste 28 Noroeste 0 -- -- 82
2019-04-11 01:00:00 10.7 18 Noroeste 28 Noroeste 0 -- -- 74
2019-04-11 00:00:00 11.4 14 Noroeste 25 Noroeste 0 -- -- 71
2019-04-10 23:00:00 12.7 14 Noroeste 26 Noroeste 0 -- -- 69
2019-04-10 22:00:00 13.9 14 Noroeste 29 Noroeste 0 -- -- 68
2019-04-10 21:00:00 15.4 16 Noroeste 37 Noroeste 0 -- -- 65
2019-04-10 20:00:00 17 23 Noroeste 39 Noroeste 0 -- -- 56
2019-04-10 19:00:00 17.9 22 Noroeste 37 Norte 0 -- -- 43
2019-04-10 18:00:00 17.4 20 Norte 39 Noroeste 0 -- -- 46
2019-04-10 17:00:00 17.4 21 Norte 41 Noroeste 0 -- -- 46
2019-04-10 16:00:00 17.5 22 Noroeste 42 Noroeste 0 -- -- 46
2019-04-10 15:00:00 17.1 20 Noroeste 36 Noroeste 0 -- -- 49
2019-04-10 14:00:00 16.2 17 Noroeste 34 Noroeste 0 -- -- 53
2019-04-10 13:00:00 14.7 23 Noroeste 39 Norte 0 -- -- 61
2019-04-10 12:00:00 13 19 Noroeste 37 Norte 0 -- -- 67
2019-04-10 11:00:00 11.2 20 Norte 32 Noroeste 0 -- -- 84
2019-04-10 10:00:00 9.4 17 Norte 25 Noroeste 0 -- -- 93
2019-04-10 09:00:00 7.4 12 Noroeste 21 Noroeste 0 -- -- 100
2019-04-10 08:00:00 6.8 10 Noroeste 17 Noroeste 0 -- -- 99
2019-04-10 07:00:00 6.8 8 Noroeste 13 Noroeste 0 -- -- 99
2019-04-10 06:00:00 6.9 8 Noroeste 12 Noroeste 0 -- -- 99
2019-04-10 05:00:00 7 8 Noroeste 16 Noroeste 0 -- -- 97
2019-04-10 04:00:00 7.4 8 Noroeste 15 Oeste 0 -- -- 97
2019-04-10 03:00:00 7.9 7 Noroeste 14 Noroeste 0 -- -- 96
2019-04-10 02:00:00 8.4 8 Noroeste 16 Noroeste 0 -- -- 94
2019-04-10 01:00:00 9.4 10 Noroeste 21 Noroeste 0 -- -- 91
2019-04-10 00:00:00 10.3 16 Oeste 26 Oeste 0 -- -- 86
2019-04-09 23:00:00 11.2 15 Oeste 27 Noroeste 0 -- -- 80
2019-04-09 22:00:00 12 13 Noroeste 24 Noroeste 0 -- -- 76
2019-04-09 21:00:00 13.7 19 Noroeste 39 Noroeste 0 -- -- 68
2019-04-09 20:00:00 15.1 23 Noroeste 40 Noroeste 0 -- -- 57
2019-04-09 19:00:00 15.6 19 Noroeste 32 Noroeste 0 -- -- 63
2019-04-09 18:00:00 15.8 18 Noroeste 39 Noroeste 0 -- -- 60
2019-04-09 17:00:00 15.5 27 Noroeste 46 Noroeste 0 -- -- 59
2019-04-09 16:00:00 16.6 25 Noroeste 40 Noroeste 0 -- -- 55
2019-04-09 15:00:00 16.7 23 Noroeste 43 Oeste 0 -- -- 52
2019-04-09 14:00:00 15.8 21 Noroeste 37 Oeste 0 -- -- 58
2019-04-09 13:00:00 14.8 19 Noroeste 32 Noroeste 0 -- -- 65
2019-04-09 12:00:00 13.9 15 Noroeste 34 Oeste 0 -- -- 71
2019-04-09 11:00:00 13.1 13 Oeste 27 Oeste 0 -- -- 80
2019-04-09 10:00:00 12 17 Noroeste 27 Noroeste 0 -- -- 85
2019-04-09 09:00:00 10 8 Oeste 15 Oeste 0 -- -- 92
2019-04-09 08:00:00 9.1 7 Oeste 13 Oeste 0 -- -- 93
2019-04-09 07:00:00 9.3 6 Oeste 12 Oeste 0 -- -- 92
2019-04-09 06:00:00 9.8 6 Oeste 13 Sudoeste 0.2 -- -- 91
2019-04-09 05:00:00 9.3 7 Oeste 12 Oeste 0 -- -- 92
2019-04-09 04:00:00 9.3 7 Oeste 13 Oeste 0 -- -- 91
2019-04-09 03:00:00 9.8 10 Oeste 18 Oeste 0 -- -- 90
2019-04-09 02:00:00 9.8 10 Oeste 20 Oeste 0 -- -- 86
2019-04-09 01:00:00 10.2 12 Oeste 20 Oeste 0 -- -- 84
2019-04-09 00:00:00 10.9 14 Oeste 23 Oeste 0 -- -- 79
2019-04-08 23:00:00 11.6 14 Oeste 29 Oeste 0 -- -- 73
2019-04-08 22:00:00 12.4 16 Oeste 28 Oeste 0 -- -- 70
2019-04-08 21:00:00 13.3 12 Noroeste 36 Noroeste 0 -- -- 66
2019-04-08 20:00:00 15.8 23 Noroeste 36 Noroeste 0 -- -- 54
2019-04-08 19:00:00 16.8 26 Noroeste 42 Noroeste 0 -- -- 50
2019-04-08 18:00:00 17.9 16 Oeste 33 Oeste 0 -- -- 50
2019-04-08 17:00:00 17.1 13 Oeste 30 Oeste 0 -- -- 62
2019-04-08 16:00:00 16.5 12 Noroeste 36 Noroeste 0 -- -- 70
2019-04-08 15:00:00 15.5 18 Oeste 28 Oeste 0 -- -- 69
2019-04-08 14:00:00 16 14 Oeste 25 Noroeste 0 -- -- 68
2019-04-08 13:00:00 14.8 14 Noroeste 21 Oeste 0 -- -- 80
2019-04-08 12:00:00 13.8 12 Noroeste 20 Noroeste 0 -- -- 88
2019-04-08 11:00:00 12.4 11 Noroeste 23 Noroeste 0 -- -- 97
2019-04-08 10:00:00 11.4 10 Noroeste 24 Noroeste 2.2 -- -- 99
2019-04-08 09:00:00 12.2 10 Sudoeste 17 Sudoeste 0.2 -- -- 100
2019-04-08 08:00:00 12 13 Sudoeste 18 Sudoeste 1 -- -- 100
2019-04-08 07:00:00 12.1 13 Sudoeste 19 Sur 0.2 -- -- 99
2019-04-08 06:00:00 11.8 11 Sur 15 Sudoeste 0.6 -- -- 98
2019-04-08 05:00:00 11.9 8 Sur 19 Sur 0.2 -- -- 98
2019-04-08 04:00:00 12.2 8 Sudoeste 17 Sudoeste 0 -- -- 95
2019-04-08 03:00:00 12 6 Sudoeste 15 Sudoeste 0 -- -- 96
2019-04-08 02:00:00 12.3 6 Sudoeste 12 Sur 0 -- -- 94
2019-04-08 01:00:00 12.8 8 Sudoeste 14 Sudoeste 0 -- -- 92
2019-04-08 00:00:00 12.5 5 Oeste 16 Sudoeste 0 -- -- 94
2019-04-07 23:00:00 12.7 6 Oeste 10 Oeste 0 -- -- 93
2019-04-07 22:00:00 13.1 6 Oeste 17 Oeste 0 -- -- 91
2019-04-07 21:00:00 13.5 10 Oeste 23 Oeste 0 -- -- 89
2019-04-07 20:00:00 13.9 18 Noroeste 36 Oeste 0 -- -- 89
2019-04-07 19:00:00 14 20 Oeste 42 Oeste 0.2 -- -- 92
2019-04-07 18:00:00 13.6 11 Sudoeste 28 Noroeste 6.2 -- -- 98
2019-04-07 17:00:00 13.4 9 Sudeste 22 Sur 0.2 -- -- 98
2019-04-07 16:00:00 12.7 15 Sudeste 27 Sur 0.4 -- -- 97
2019-04-07 15:00:00 12.5 21 Sur 28 Sur 0.2 -- -- 92
2019-04-07 14:00:00 12.7 19 Sur 31 Sur 0.2 -- -- 82
2019-04-07 13:00:00 12.6 8 Sudoeste 17 Oeste 0 -- -- 76
2019-04-07 12:00:00 11.6 11 Oeste 27 Oeste 0 -- -- 76
2019-04-07 11:00:00 11.9 14 Oeste 24 Sudoeste 0 -- -- 77
2019-04-07 10:00:00 11.1 5 Oeste 13 Oeste 0 -- -- 81
2019-04-07 09:00:00 9.9 7 Oeste 13 Oeste 0 -- -- 84
2019-04-07 08:00:00 9.3 6 Oeste 10 Oeste 0 -- -- 85
2019-04-07 07:00:00 8.9 4 Oeste 21 Sudoeste 0 -- -- 87
2019-04-07 06:00:00 8.5 6 Oeste 15 Oeste 0 -- -- 92
2019-04-07 05:00:00 8.8 8 Oeste 13 Oeste 0 -- -- 92
2019-04-07 04:00:00 8.8 7 Oeste 19 Sudoeste 0 -- -- 93
2019-04-07 03:00:00 8.9 8 Oeste 15 Oeste 0 -- -- 91
2019-04-07 02:00:00 9.1 8 Oeste 18 Oeste 0 -- -- 89
2019-04-07 01:00:00 9 8 Oeste 19 Oeste 0 -- -- 87
2019-04-07 00:00:00 9.6 13 Oeste 26 Oeste 0 -- -- 82
2019-04-06 23:00:00 10.3 15 Oeste 33 Oeste 0 -- -- 78
2019-04-06 22:00:00 10.8 19 Oeste 37 Noroeste 0 -- -- 73
2019-04-06 21:00:00 11.8 23 Oeste 40 Noroeste 0 -- -- 67
2019-04-06 20:00:00 13 26 Oeste 43 Noroeste 0 -- -- 58
2019-04-06 19:00:00 14.2 23 Noroeste 45 Oeste 0 -- -- 55
2019-04-06 18:00:00 14.7 27 Oeste 53 Oeste 0 -- -- 58
2019-04-06 17:00:00 15.3 26 Oeste 46 Oeste 0 -- -- 55
2019-04-06 16:00:00 13.3 16 Oeste 46 Noroeste 0 -- -- 69
2019-04-06 15:00:00 13.5 20 Oeste 44 Oeste 0 -- -- 66
2019-04-06 14:00:00 11.1 14 Oeste 50 Oeste 2.6 -- -- 86
2019-04-06 13:00:00 12.2 16 Noroeste 32 Oeste 0 -- -- 70
2019-04-06 12:00:00 11.9 16 Oeste 30 Oeste 0 -- -- 75
2019-04-06 11:00:00 10.6 14 Oeste 26 Oeste 0.2 -- -- 84
2019-04-06 10:00:00 9 12 Sudoeste 17 Sudoeste 0 -- -- 91
2019-04-06 09:00:00 7 6 Sudoeste 17 Noroeste 0 -- -- 96
2019-04-06 08:00:00 7.4 14 Oeste 26 Noroeste 0.4 -- -- 94
2019-04-06 07:00:00 7.5 13 Oeste 26 Oeste 0 -- -- 94
2019-04-06 06:00:00 7.8 17 Oeste 28 Oeste 0 -- -- 88
2019-04-06 05:00:00 7.5 12 Oeste 20 Oeste 0.2 -- -- 90
2019-04-06 04:00:00 7 10 Oeste 19 Oeste 0 -- -- 91
2019-04-06 03:00:00 7 9 Oeste 19 Oeste 0 -- -- 91
2019-04-06 02:00:00 7.3 11 Oeste 21 Oeste 0 -- -- 91
2019-04-06 01:00:00 7.5 10 Oeste 18 Oeste 0 -- -- 90
2019-04-06 00:00:00 7.7 11 Oeste 25 Oeste 0 -- -- 88
2019-04-05 23:00:00 8.1 15 Oeste 27 Oeste 0 -- -- 87
2019-04-05 22:00:00 7.9 13 Oeste 27 Oeste 0.6 -- -- 90
2019-04-05 21:00:00 7.8 12 Noroeste 37 Noroeste 1 -- -- 92
2019-04-05 20:00:00 10.3 21 Oeste 43 Noroeste 0 -- -- 73
2019-04-05 19:00:00 10.6 24 Noroeste 49 Oeste 0 -- -- 72
2019-04-05 18:00:00 12 29 Oeste 46 Noroeste 0 -- -- 61
2019-04-05 17:00:00 11.7 12 Sudoeste 39 Oeste 0.6 -- -- 71
2019-04-05 16:00:00 11.2 23 Oeste 39 Oeste 0.2 -- -- 68
2019-04-05 15:00:00 12.6 22 Noroeste 42 Noroeste 0 -- -- 58
2019-04-05 14:00:00 9.8 20 Noroeste 31 Noroeste 0 -- -- 74
2019-04-05 13:00:00 5.9 18 Noroeste 48 Noroeste 2.2 -- -- 94
2019-04-05 12:00:00 9.8 20 Noroeste 35 Noroeste 0 -- -- 74
2019-04-05 11:00:00 8.1 19 Noroeste 34 Noroeste 0 -- -- 83
2019-04-05 10:00:00 8 24 Noroeste 47 Noroeste 0.4 -- -- 91
2019-04-05 09:00:00 8.6 15 Oeste 27 Oeste 1.2 -- -- 94
2019-04-05 08:00:00 8.3 6 Sudoeste 10 Sudoeste 0.2 -- -- 97
2019-04-05 07:00:00 8.5 5 Oeste 17 Noroeste 0.2 -- -- 97
2019-04-05 06:00:00 9.1 9 Oeste 31 Sudoeste 0 -- -- 92
2019-04-05 05:00:00 9.3 20 Sudoeste 35 Sudoeste 1.4 -- -- 91
2019-04-05 04:00:00 9 15 Sudoeste 25 Sur 0.2 -- -- 96
2019-04-05 03:00:00 8.5 15 Sur 23 Sur 0 -- -- 92
2019-04-05 02:00:00 8.7 14 Sudoeste 26 Sudoeste 0.2 -- -- 89
2019-04-05 01:00:00 8.6 8 Sudoeste 26 Oeste 0.6 -- -- 90
2019-04-05 00:00:00 10.4 17 Oeste 30 Noroeste 0 -- -- 67
2019-04-04 23:00:00 10.2 18 Noroeste 28 Oeste 0 -- -- 66
2019-04-04 22:00:00 10.6 18 Noroeste 36 Noroeste 0 -- -- 65
2019-04-04 21:00:00 12.2 24 Noroeste 40 Oeste 0 -- -- 53
2019-04-04 20:00:00 15.7 16 Oeste 30 Noroeste 0 -- -- 39
2019-04-04 19:00:00 16.6 15 Noroeste 32 Noroeste 0 -- -- 32
2019-04-04 18:00:00 17 21 Noroeste 31 Oeste 0 -- -- 32
2019-04-04 17:00:00 16.9 13 Noroeste 32 Noroeste 0 -- -- 32
2019-04-04 16:00:00 16 18 Noroeste 33 Noroeste 0 -- -- 31
2019-04-04 15:00:00 15.1 17 Norte 30 Noroeste 0 -- -- 32
2019-04-04 14:00:00 14 15 Norte 28 Noroeste 0 -- -- 37
2019-04-04 13:00:00 12.4 15 Noroeste 29 Norte 0 -- -- 45
2019-04-04 12:00:00 10.6 16 Norte 26 Noroeste 0 -- -- 52
2019-04-04 11:00:00 8.4 14 Noroeste 24 Norte 0 -- -- 67
2019-04-04 10:00:00 6.7 15 Noroeste 24 Noroeste 0 -- -- 80
2019-04-04 09:00:00 4.7 14 Noroeste 24 Noroeste 0 -- -- 90
2019-04-04 08:00:00 4.3 14 Noroeste 23 Noroeste 0 -- -- 90
2019-04-04 07:00:00 4.8 16 Noroeste 24 Noroeste 0 -- -- 88
2019-04-04 06:00:00 5.2 13 Noroeste 22 Noroeste 0 -- -- 86
2019-04-04 05:00:00 5.8 15 Noroeste 23 Noroeste 0 -- -- 83
2019-04-04 04:00:00 6.3 10 Noroeste 20 Noroeste 0 -- -- 78
2019-04-04 03:00:00 7.1 11 Noroeste 22 Noroeste 0 -- -- 73
2019-04-04 02:00:00 8.4 18 Noroeste 36 Noroeste 0 -- -- 70
2019-04-04 01:00:00 9.4 20 Noroeste 39 Norte 0 -- -- 66
2019-04-04 00:00:00 10.4 16 Noroeste 35 Norte 0 -- -- 59
2019-04-03 23:00:00 11.8 17 Norte 31 Norte 0 -- -- 53
2019-04-03 22:00:00 12.9 11 Noroeste 24 Norte 0 -- -- 51
2019-04-03 21:00:00 14.6 15 Noroeste 32 Noroeste 0 -- -- 45
2019-04-03 20:00:00 16.2 21 Norte 36 Noroeste 0 -- -- 40
2019-04-03 19:00:00 17.2 21 Noroeste 35 Oeste 0 -- -- 43
2019-04-03 18:00:00 17.8 22 Noroeste 37 Noroeste 0 -- -- 41
2019-04-03 17:00:00 17.8 19 Noroeste 39 Noroeste 0 -- -- 43
2019-04-03 16:00:00 17.5 24 Noroeste 38 Noroeste 0 -- -- 41
2019-04-03 15:00:00 16.6 27 Noroeste 42 Noroeste 0 -- -- 46
2019-04-03 14:00:00 15.9 21 Noroeste 32 Noroeste 0 -- -- 51
2019-04-03 13:00:00 14.6 21 Noroeste 35 Norte 0 -- -- 56
2019-04-03 12:00:00 13 19 Norte 35 Noroeste 0 -- -- 65
2019-04-03 11:00:00 10.9 22 Noroeste 35 Noroeste 0 -- -- 77
2019-04-03 10:00:00 8.7 21 Noroeste 29 Noroeste 0 -- -- 92
2019-04-03 09:00:00 7.8 17 Noroeste 28 Noroeste 0 -- -- 97
2019-04-03 08:00:00 7.7 17 Noroeste 24 Noroeste 0 -- -- 98
2019-04-03 07:00:00 8.6 15 Noroeste 23 Noroeste 0 -- -- 98
2019-04-03 06:00:00 9.4 14 Noroeste 21 Noroeste 0 -- -- 96
2019-04-03 05:00:00 9.8 13 Noroeste 19 Noroeste 0 -- -- 96
2019-04-03 04:00:00 10.5 12 Noroeste 19 Noroeste 0 -- -- 93
2019-04-03 03:00:00 10.9 12 Noroeste 19 Noroeste 0 -- -- 90
2019-04-03 02:00:00 11.5 13 Noroeste 17 Noroeste 0 -- -- 85
2019-04-03 01:00:00 12.8 11 Noroeste 16 Noroeste 0 -- -- 76
2019-04-03 00:00:00 14.4 7 Noroeste 13 Norte 0 -- -- 70
2019-04-02 23:00:00 15.4 9 Noroeste 16 Noroeste 0 -- -- 66
2019-04-02 22:00:00 16 6 Oeste 14 Oeste 0 -- -- 60
2019-04-02 21:00:00 17.7 7 Oeste 16 Noroeste 0 -- -- 59
2019-04-02 20:00:00 20.1 10 Oeste 21 Oeste 0 -- -- 46
2019-04-02 19:00:00 20.8 12 Oeste 24 Noroeste 0 -- -- 46
2019-04-02 18:00:00 20.9 9 Noroeste 28 Oeste 0 -- -- 48
2019-04-02 17:00:00 21.1 8 Oeste 19 Oeste 0 -- -- 49
2019-04-02 16:00:00 20.1 7 Oeste 19 Sudoeste 0 -- -- 56
2019-04-02 15:00:00 20.2 8 Sudoeste 15 Sur 0 -- -- 53
2019-04-02 14:00:00 18.8 7 Este 13 Este 0 -- -- 60
2019-04-02 13:00:00 17.2 3 Sur 11 Este 0 -- -- 71
2019-04-02 12:00:00 15.2 4 Sudeste 9 Este 0 -- -- 80
2019-04-02 11:00:00 12.1 5 Nordeste 9 Nordeste 0 -- -- 100
2019-04-02 10:00:00 10.5 4 Norte 6 Nordeste 0 -- -- 100
2019-04-02 09:00:00 8.7 3 Sudoeste 5 Oeste 0 -- -- 100
2019-04-02 08:00:00 9.1 2 Oeste 10 Norte 0 -- -- 100
2019-04-02 07:00:00 9.9 7 Noroeste 13 Noroeste 0.2 -- -- 100
2019-04-02 06:00:00 10.1 4 Noroeste 10 Noroeste 0 -- -- 99
2019-04-02 05:00:00 10.6 6 Noroeste 10 Noroeste 0 -- -- 99
2019-04-02 04:00:00 10.3 0 Calma 4 Nordeste 0 -- -- 97
2019-04-02 03:00:00 10.6 4 Norte 10 Oeste 0 -- -- 95
2019-04-02 02:00:00 11.7 7 Oeste 10 Sur 0 -- -- 89
2019-04-02 01:00:00 11.5 6 Sudoeste 8 Sudoeste 0 -- -- 90
2019-04-02 00:00:00 11.5 3 Sudoeste 9 Nordeste 0 -- -- 93
2019-04-01 23:00:00 11.8 8 Este 10 Este 0 -- -- 93
2019-04-01 22:00:00 12 6 Este 15 Este 0 -- -- 94
2019-04-01 21:00:00 13.1 4 Nordeste 11 Norte 0.2 -- -- 88
2019-04-01 20:00:00 13 8 Oeste 31 Oeste 2.2 -- -- 89
2019-04-01 19:00:00 16.7 20 Sudoeste 33 Sur 0 -- -- 68
2019-04-01 18:00:00 18.8 16 Sudoeste 32 Sur 0 -- -- 56
2019-04-01 17:00:00 18 15 Sudoeste 30 Sur 0 -- -- 62
2019-04-01 16:00:00 17.2 18 Sudoeste 46 Sudoeste 0 -- -- 60
2019-04-01 15:00:00 17.8 24 Sudoeste 40 Sudoeste 0 -- -- 65
2019-04-01 14:00:00 18.8 5 Sudoeste 18 Sur 0 -- -- 56
2019-04-01 13:00:00 17.5 5 Sur 16 Este 0 -- -- 66
2019-04-01 12:00:00 16.5 5 Sudeste 15 Este 0 -- -- 73
2019-04-01 11:00:00 13.8 0 Calma 6 Este 0 -- -- 91
2019-04-01 10:00:00 11.9 3 Nordeste 6 Nordeste 0 -- -- 99
2019-04-01 09:00:00 11.1 0 Calma 4 Noroeste 0 -- -- 99
2019-04-01 08:00:00 10.9 3 Norte 9 Nordeste 0 -- -- 99
2019-04-01 07:00:00 10.7 4 Este 10 Este 0 -- -- 99
2019-04-01 06:00:00 10.8 6 Este 15 Este 0 -- -- 99
2019-04-01 05:00:00 11.4 9 Sudeste 16 Sur 0 -- -- 98
2019-04-01 04:00:00 12.2 12 Sur 19 Sur 0 -- -- 94
2019-04-01 03:00:00 11.3 12 Sudeste 27 Sur 0 -- -- 91
2019-04-01 02:00:00 12.2 5 Este 8 Este 0 -- -- 83
2019-04-01 01:00:00 12.5 3 Este 6 Este 0 -- -- 83
2019-04-01 00:00:00 12.1 4 Nordeste 5 Nordeste 0 -- -- 84
2019-03-31 23:00:00 12.3 2 Oeste 8 Norte 0 -- -- 84
2019-03-31 22:00:00 12.3 4 Noroeste 10 Noroeste 0 -- -- 86
2019-03-31 21:00:00 12.8 7 Noroeste 25 Noroeste 0 -- -- 84
2019-03-31 20:00:00 14.4 17 Sudoeste 23 Sur 0.2 -- -- 83
2019-03-31 19:00:00 14.4 14 Sur 22 Sur 0 -- -- 79
2019-03-31 18:00:00 14.7 14 Sudoeste 23 Sudoeste 0.8 -- -- 83
2019-03-31 17:00:00 19.6 8 Noroeste 19 Noroeste 0 -- -- 51
2019-03-31 16:00:00 15.5 4 Nordeste 12 Noroeste 0.8 -- -- 70
2019-03-31 15:00:00 14.7 8 Noroeste 22 Oeste 0 -- -- 81
2019-03-31 14:00:00 17.5 6 Oeste 13 Sudoeste 0 -- -- 70
2019-03-31 13:00:00 14.9 3 Oeste 9 Sudoeste 0 -- -- 89
2019-03-31 12:00:00 13.4 4 Nordeste 6 Nordeste 0.2 -- -- 94
2019-03-31 11:00:00 13.1 4 Norte 6 Norte 0.2 -- -- 94
2019-03-31 10:00:00 12.9 2 Sudoeste 6 Norte 0.2 -- -- 94
2019-03-31 09:00:00 11.9 0 Calma 5 Nordeste 0 -- -- 94
2019-03-31 08:00:00 11.3 2 Norte 8 Este 0 -- -- 95
2019-03-31 07:00:00 11.4 5 Nordeste 8 Nordeste 0 -- -- 94
2019-03-31 06:00:00 12.1 5 Sudeste 10 Sudeste 0 -- -- 94
2019-03-31 05:00:00 12.2 3 Sur 9 Sur 0 -- -- 91
2019-03-31 03:00:00 12.7 14 Sur 22 Sur 0 -- -- 91
2019-03-31 01:00:00 12.7 10 Sur 13 Sur 0 -- -- 90
2019-03-31 00:00:00 13.1 3 Sudoeste 10 Sur 0 -- -- 88
2019-03-30 23:00:00 13.2 5 Sudoeste 9 Sudoeste 0 -- -- 87
2019-03-30 22:00:00 13.6 5 Oeste 34 Sur 0 -- -- 86
2019-03-30 21:00:00 13.7 29 Sur 41 Sur 0 -- -- 85
2019-03-30 20:00:00 14.7 32 Sur 46 Sur 0 -- -- 80
2019-03-30 19:00:00 17.1 28 Sur 40 Sudoeste 0 -- -- 64
2019-03-30 18:00:00 20.7 15 Sur 22 Sur 0 -- -- 44
2019-03-30 17:00:00 22 3 Sur 20 Sudeste 0 -- -- 41
2019-03-30 16:00:00 21.7 8 Sur 17 Sur 0 -- -- 43
2019-03-30 15:00:00 21.6 11 Sur 24 Este 0 -- -- 42
2019-03-30 14:00:00 20.9 10 Este 21 Sudeste 0 -- -- 43
2019-03-30 13:00:00 19.4 6 Sudeste 18 Este 0 -- -- 47
2019-03-30 12:00:00 19.1 8 Este 15 Este 0 -- -- 49
2019-03-30 11:00:00 16.7 8 Este 23 Este 0 -- -- 62
2019-03-30 10:00:00 14.1 10 Este 21 Nordeste 0 -- -- 70
2019-03-30 09:00:00 11.7 12 Nordeste 21 Nordeste 0 -- -- 78
2019-03-30 08:00:00 9.5 10 Nordeste 16 Este 0 -- -- 84
2019-03-30 07:00:00 9.3 11 Nordeste 15 Nordeste 0 -- -- 85
2019-03-30 06:00:00 9.7 10 Nordeste 15 Este 0 -- -- 87
2019-03-30 05:00:00 9.9 8 Nordeste 12 Nordeste 0 -- -- 91
2019-03-30 04:00:00 11.4 4 Este 22 Sur 0 -- -- 78
2019-03-30 03:00:00 11.9 11 Sudeste 18 Sudeste 0 -- -- 81
2019-03-30 02:00:00 12.7 9 Sudeste 12 Sudeste 0 -- -- 83
2019-03-30 01:00:00 12.3 0 Calma 4 Noroeste 0 -- -- 87
2019-03-30 00:00:00 12.4 0 Calma 5 Sudeste 0 -- -- 86
2019-03-29 23:00:00 12.9 3 Noroeste 24 Sudoeste 0 -- -- 85
2019-03-29 22:00:00 14 15 Sur 23 Sur 0 -- -- 74
2019-03-29 21:00:00 13.9 13 Sudoeste 28 Sudoeste 0 -- -- 76
2019-03-29 20:00:00 15.2 20 Sudoeste 30 Sudoeste 0 -- -- 70
2019-03-29 19:00:00 17.2 21 Sudoeste 28 Sur 0 -- -- 58
2019-03-29 18:00:00 19.5 20 Sur 31 Sur 0 -- -- 51
2019-03-29 17:00:00 21 12 Sur 23 Este 0 -- -- 35
2019-03-29 16:00:00 21.3 16 Sur 27 Sur 0 -- -- 34
2019-03-29 15:00:00 21.2 14 Sur 35 Sudoeste 0 -- -- 33
2019-03-29 14:00:00 20.5 16 Sur 28 Sur 0 -- -- 33
2019-03-29 13:00:00 19.4 7 Nordeste 21 Este 0 -- -- 35
2019-03-29 12:00:00 18.3 9 Este 29 Este 0 -- -- 37
2019-03-29 11:00:00 15.4 8 Este 22 Sudeste 0 -- -- 41
2019-03-29 10:00:00 13.9 11 Este 22 Este 0 -- -- 48
2019-03-29 09:00:00 11.4 11 Este 21 Este 0 -- -- 57
2019-03-29 08:00:00 9.3 10 Este 16 Este 0 -- -- 63
2019-03-29 07:00:00 8.5 8 Este 20 Este 0 -- -- 67
2019-03-29 06:00:00 8.9 9 Este 20 Este 0 -- -- 65
2019-03-29 05:00:00 9 8 Este 19 Este 0 -- -- 62
2019-03-29 04:00:00 9 8 Este 15 Este 0 -- -- 55
2019-03-29 03:00:00 9.5 8 Nordeste 15 Este 0 -- -- 48
2019-03-29 02:00:00 10.5 6 Este 12 Este 0 -- -- 53
2019-03-29 01:00:00 11.4 5 Este 6 Nordeste 0 -- -- 72
2019-03-29 00:00:00 12 2 Oeste 5 Oeste 0 -- -- 73
2019-03-28 23:00:00 12.8 2 Oeste 5 Sudoeste 0 -- -- 70
2019-03-28 22:00:00 13.1 2 Sudoeste 13 Sudoeste 0 -- -- 69
2019-03-28 21:00:00 14.1 9 Sudoeste 21 Sudoeste 0 -- -- 64
2019-03-28 20:00:00 15.6 15 Sudoeste 24 Sur 0 -- -- 56
2019-03-28 19:00:00 17.7 15 Sudoeste 30 Sur 0 -- -- 46
2019-03-28 18:00:00 20 14 Este 37 Este 0 -- -- 33
2019-03-28 17:00:00 20.4 19 Este 36 Este 0 -- -- 31
2019-03-28 16:00:00 20.3 18 Sudeste 38 Este 0 -- -- 29
2019-03-28 15:00:00 19.8 19 Este 41 Sudeste 0 -- -- 32
2019-03-28 14:00:00 19.4 18 Este 37 Sudeste 0 -- -- 31
2019-03-28 13:00:00 18.6 17 Este 41 Este 0 -- -- 34
2019-03-28 12:00:00 17.6 19 Este 44 Este 0 -- -- 41
2019-03-28 11:00:00 15.6 22 Este 44 Este 0 -- -- 48
2019-03-28 10:00:00 14.2 21 Este 35 Este 0 -- -- 55
2019-03-28 09:00:00 11.1 17 Este 29 Nordeste 0 -- -- 67
2019-03-28 08:00:00 9.1 12 Nordeste 19 Este 0 -- -- 72
2019-03-28 07:00:00 8.4 7 Este 18 Nordeste 0 -- -- 70
2019-03-28 06:00:00 8.8 10 Este 14 Este 0 -- -- 68
2019-03-28 05:00:00 8.4 7 Este 15 Este 0 -- -- 72
2019-03-28 04:00:00 9.3 6 Este 10 Este 0 -- -- 68
2019-03-28 03:00:00 10.4 7 Este 14 Este 0 -- -- 66
2019-03-28 02:00:00 10.9 6 Sudeste 17 Sudeste 0 -- -- 65
2019-03-28 01:00:00 10.9 12 Sudeste 23 Sudeste 0 -- -- 64
2019-03-28 00:00:00 11.9 9 Sudeste 21 Sur 0 -- -- 65
2019-03-27 23:00:00 12.2 13 Sur 23 Sur 0 -- -- 69
2019-03-27 22:00:00 12.9 18 Sur 27 Sur 0 -- -- 67
2019-03-27 21:00:00 13.5 21 Sur 30 Sudoeste 0 -- -- 60
2019-03-27 20:00:00 15 23 Sur 32 Sur 0 -- -- 50
2019-03-27 19:00:00 17.6 24 Sudoeste 32 Sur 0 -- -- 44
2019-03-27 18:00:00 20.5 14 Sur 27 Sudeste 0 -- -- 25
2019-03-27 17:00:00 21 12 Sudeste 28 Sur 0 -- -- 27
2019-03-27 16:00:00 21.5 11 Sudeste 27 Este 0 -- -- 30
2019-03-27 15:00:00 20.8 16 Este 33 Este 0 -- -- 35
2019-03-27 14:00:00 20 13 Sudeste 29 Este 0 -- -- 39
2019-03-27 13:00:00 19 9 Este 35 Este 0 -- -- 38
2019-03-27 12:00:00 18 18 Este 42 Este 0 -- -- 36
2019-03-27 11:00:00 16.6 22 Este 39 Este 0 -- -- 42
2019-03-27 10:00:00 14.7 15 Este 32 Este 0 -- -- 52
2019-03-27 09:00:00 12.4 14 Este 24 Este 0 -- -- 69
2019-03-27 08:00:00 10.5 8 Este 15 Este 0 -- -- 80
2019-03-27 07:00:00 10.3 8 Este 16 Este 0 -- -- 81
2019-03-27 06:00:00 11 9 Este 17 Este 0 -- -- 77
2019-03-27 05:00:00 12.3 10 Sudeste 27 Este 0 -- -- 64
2019-03-27 04:00:00 12.7 9 Sudeste 18 Sudeste 0 -- -- 73
2019-03-27 03:00:00 12.8 9 Sudeste 23 Sur 0 -- -- 74
2019-03-27 02:00:00 13.5 16 Sudeste 30 Sudeste 0 -- -- 71
2019-03-27 01:00:00 14.1 11 Sudeste 27 Sudeste 0 -- -- 63
2019-03-27 00:00:00 14 11 Sur 23 Sur 0 -- -- 64
2019-03-26 23:00:00 15.6 14 Sudeste 24 Sudeste 0 -- -- 57
2019-03-26 22:00:00 15.3 13 Sudoeste 21 Sur 0 -- -- 62
2019-03-26 21:00:00 15.6 4 Sudoeste 9 Oeste 0 -- -- 60
2019-03-26 20:00:00 16.7 5 Oeste 22 Sur 0 -- -- 57
2019-03-26 19:00:00 18.1 14 Sudoeste 32 Sur 0 -- -- 53
2019-03-26 18:00:00 19.2 18 Sudoeste 35 Sudoeste 0 -- -- 50
2019-03-26 17:00:00 20.3 24 Sudoeste 42 Sudoeste 0 -- -- 48
2019-03-26 16:00:00 23.1 9 Sudeste 33 Este 0 -- -- 37
2019-03-26 15:00:00 23.6 16 Sudeste 35 Sudeste 0 -- -- 36
2019-03-26 14:00:00 23.8 15 Este 35 Este 0 -- -- 33
2019-03-26 13:00:00 22.5 16 Este 37 Sudeste 0 -- -- 33
2019-03-26 12:00:00 21.1 17 Este 41 Este 0 -- -- 35
2019-03-26 11:00:00 19.9 21 Este 43 Este 0 -- -- 38
2019-03-26 10:00:00 17.8 12 Este 22 Este 0 -- -- 50
2019-03-26 09:00:00 15.3 14 Este 25 Nordeste 0 -- -- 58
2019-03-26 08:00:00 14 17 Este 26 Este 0 -- -- 61
2019-03-26 07:00:00 13.7 15 Este 23 Este 0 -- -- 61
2019-03-26 06:00:00 12.7 9 Este 16 Este 0 -- -- 64
2019-03-26 05:00:00 12.8 9 Este 19 Este 0 -- -- 63
2019-03-26 04:00:00 13.3 9 Este 18 Nordeste 0 -- -- 60
2019-03-26 03:00:00 13.2 7 Nordeste 10 Nordeste 0 -- -- 60
2019-03-26 02:00:00 15 5 Este 20 Sudeste 0 -- -- 60
2019-03-26 01:00:00 16 12 Sudeste 24 Sudeste 0 -- -- 59
2019-03-26 00:00:00 15.9 6 Sudeste 15 Este 0 -- -- 48
2019-03-25 23:00:00 16.6 5 Este 12 Este 0 -- -- 47
2019-03-25 22:00:00 17.5 4 Este 13 Este 0 -- -- 45
2019-03-25 21:00:00 18.7 6 Este 19 Este 0 -- -- 42
2019-03-25 20:00:00 20.3 10 Sudeste 26 Este 0 -- -- 38
2019-03-25 19:00:00 21.7 14 Sudeste 41 Este 0 -- -- 35
2019-03-25 18:00:00 22.8 20 Este 48 Sudeste 0 -- -- 31
2019-03-25 17:00:00 23.7 19 Este 37 Sudeste 0 -- -- 30
2019-03-25 16:00:00 23.4 18 Este 36 Este 0 -- -- 29
2019-03-25 15:00:00 22.8 22 Este 35 Este 0 -- -- 31
2019-03-25 14:00:00 22.4 22 Este 36 Este 0 -- -- 32
2019-03-25 13:00:00 21.8 22 Este 42 Nordeste 0 -- -- 36
2019-03-25 12:00:00 20.5 21 Este 32 Sudeste 0 -- -- 39
2019-03-25 11:00:00 18.6 15 Este 23 Este 0 -- -- 47
2019-03-25 10:00:00 17.1 13 Nordeste 20 Este 0 -- -- 53
2019-03-25 09:00:00 14.4 4 Este 12 Nordeste 0 -- -- 63
2019-03-25 08:00:00 12.7 3 Nordeste 8 Este 0 -- -- 63
2019-03-25 07:00:00 11.8 3 Este 7 Este 0 -- -- 67
2019-03-25 06:00:00 11.4 4 Este 10 Nordeste 0 -- -- 69
2019-03-25 05:00:00 11.6 6 Este 12 Este 0 -- -- 69
2019-03-25 04:00:00 11.9 5 Nordeste 8 Nordeste 0 -- -- 69
2019-03-25 03:00:00 12.3 5 Nordeste 10 Este 0 -- -- 69
2019-03-25 02:00:00 12.9 5 Este 8 Este 0 -- -- 69
2019-03-25 01:00:00 13 4 Norte 6 Norte 0 -- -- 78
2019-03-25 00:00:00 13.3 0 Calma 5 Nordeste 0 -- -- 80
2019-03-24 23:00:00 14 0 Calma 14 Sur 0 -- -- 77
2019-03-24 22:00:00 14.7 10 Sudoeste 17 Sudoeste 0 -- -- 75
2019-03-24 21:00:00 15.5 13 Sudoeste 22 Sudoeste 0 -- -- 71
2019-03-24 20:00:00 16.5 11 Sudoeste 20 Sudoeste 0 -- -- 66
2019-03-24 19:00:00 18.9 10 Sur 35 Este 0 -- -- 58
2019-03-24 18:00:00 20.3 22 Sudeste 37 Este 0 -- -- 45
2019-03-24 17:00:00 21.5 17 Este 31 Este 0 -- -- 43
2019-03-24 16:00:00 21 15 Este 36 Este 0 -- -- 42
2019-03-24 15:00:00 20.8 12 Este 29 Sudeste 0 -- -- 44
2019-03-24 14:00:00 20.2 18 Este 30 Nordeste 0 -- -- 44
2019-03-24 13:00:00 19.3 10 Este 23 Sudeste 0 -- -- 46
2019-03-24 12:00:00 18.5 12 Este 24 Este 0 -- -- 48
2019-03-24 11:00:00 16.6 13 Este 25 Este 0 -- -- 53
2019-03-24 10:00:00 14.7 18 Este 27 Este 0 -- -- 59
2019-03-24 09:00:00 12.3 13 Nordeste 19 Este 0 -- -- 68
2019-03-24 08:00:00 10.3 11 Este 19 Nordeste 0 -- -- 73
2019-03-24 07:00:00 10 13 Este 22 Nordeste 0 -- -- 74
2019-03-24 06:00:00 10 11 Este 17 Este 0 -- -- 76
2019-03-24 05:00:00 9.9 10 Este 15 Este 0 -- -- 76
2019-03-24 04:00:00 10.7 12 Este 23 Este 0 -- -- 72
2019-03-24 03:00:00 11 12 Este 23 Este 0 -- -- 68
2019-03-24 02:00:00 11.5 12 Este 20 Este 0 -- -- 65
2019-03-24 01:00:00 11.9 8 Este 18 Este 0 -- -- 62
2019-03-24 00:00:00 13 9 Este 19 Este 0 -- -- 57
2019-03-23 23:00:00 14.4 15 Este 32 Sudeste 0 -- -- 52
2019-03-23 22:00:00 15.6 10 Sudeste 21 Este 0 -- -- 49
2019-03-23 21:00:00 16.5 7 Sudeste 24 Sudeste 0 -- -- 48
2019-03-23 20:00:00 17.2 11 Sudeste 26 Sudeste 0 -- -- 45
2019-03-23 19:00:00 18.6 11 Este 42 Este 0 -- -- 40
2019-03-23 18:00:00 19.7 19 Este 45 Este 0 -- -- 35
2019-03-23 17:00:00 19.7 23 Este 47 Este 0 -- -- 37
2019-03-23 16:00:00 20 21 Este 49 Este 0 -- -- 37
2019-03-23 15:00:00 20.6 22 Este 50 Este 0 -- -- 35
2019-03-23 14:00:00 19.8 23 Este 48 Este 0 -- -- 36
2019-03-23 13:00:00 19.1 23 Este 48 Este 0 -- -- 39
2019-03-23 12:00:00 18.1 23 Este 51 Este 0 -- -- 41
2019-03-23 11:00:00 17.2 26 Este 48 Nordeste 0 -- -- 44
2019-03-23 10:00:00 15.3 23 Este 40 Este 0 -- -- 52
2019-03-23 09:00:00 12.4 12 Este 23 Este 0 -- -- 64
2019-03-23 08:00:00 10.2 13 Este 23 Este 0 -- -- 69
2019-03-23 07:00:00 9.7 15 Este 23 Este 0 -- -- 69
2019-03-23 06:00:00 9.4 12 Nordeste 21 Este 0 -- -- 66
2019-03-23 05:00:00 9.8 12 Este 20 Este 0 -- -- 61
2019-03-23 04:00:00 9.7 8 Este 15 Nordeste 0 -- -- 56
2019-03-23 03:00:00 10.1 7 Este 13 Nordeste 0 -- -- 52
2019-03-23 02:00:00 11.8 5 Este 17 Sudeste 0 -- -- 50
2019-03-23 01:00:00 13.4 10 Sudeste 19 Sudeste 0 -- -- 47
2019-03-23 00:00:00 13.3 5 Sudeste 9 Este 0 -- -- 38
2019-03-22 23:00:00 13.7 4 Sudeste 8 Este 0 -- -- 38
2019-03-22 22:00:00 14.6 4 Este 14 Sudeste 0 -- -- 35
2019-03-22 21:00:00 16 10 Este 26 Este 0 -- -- 31
2019-03-22 20:00:00 17.4 9 Sur 19 Sudeste 0 -- -- 29
2019-03-22 19:00:00 18.9 14 Este 25 Este 0 -- -- 27
2019-03-22 18:00:00 19.7 12 Este 29 Este 0 -- -- 27
2019-03-22 17:00:00 20.1 10 Este 34 Este 0 -- -- 32
2019-03-22 16:00:00 19.7 14 Nordeste 28 Este 0 -- -- 32
2019-03-22 15:00:00 19.6 9 Este 28 Este 0 -- -- 33
2019-03-22 14:00:00 18.4 14 Este 32 Este 0 -- -- 36
2019-03-22 13:00:00 17.5 13 Este 32 Este 0 -- -- 40
2019-03-22 12:00:00 16.4 16 Este 27 Sudeste 0 -- -- 44
2019-03-22 11:00:00 15.1 12 Este 23 Este 0 -- -- 53
2019-03-22 10:00:00 11.8 13 Nordeste 23 Nordeste 0 -- -- 64
2019-03-22 09:00:00 10.3 10 Este 18 Este 0 -- -- 67
2019-03-22 08:00:00 8.1 7 Este 10 Este 0 -- -- 78
2019-03-22 07:00:00 7.3 4 Este 9 Este 0 -- -- 82
2019-03-22 06:00:00 7.7 3 Este 11 Nordeste 0 -- -- 77
2019-03-22 05:00:00 7.9 7 Este 9 Este 0 -- -- 74
2019-03-22 04:00:00 8.2 4 Nordeste 8 Este 0 -- -- 71
2019-03-22 03:00:00 8.9 6 Este 15 Sudeste 0 -- -- 71
2019-03-22 02:00:00 10.8 12 Sudeste 15 Sudeste 0 -- -- 68
2019-03-22 01:00:00 10.6 6 Sur 11 Sur 0 -- -- 75
2019-03-22 00:00:00 11 8 Sudoeste 17 Sudoeste 0 -- -- 73
2019-03-21 23:00:00 11.3 9 Sur 18 Sudoeste 0 -- -- 71
2019-03-21 22:00:00 11.6 12 Sudoeste 18 Sudoeste 0 -- -- 67
2019-03-21 21:00:00 12.6 12 Sudoeste 22 Sur 0 -- -- 56
2019-03-21 20:00:00 15.4 12 Sur 19 Sudeste 0 -- -- 26
2019-03-21 19:00:00 17.4 11 Sur 23 Sudeste 0 -- -- 24
2019-03-21 18:00:00 18.3 10 Sudeste 31 Este 0 -- -- 24
2019-03-21 17:00:00 18.6 11 Sudeste 32 Este 0 -- -- 23
2019-03-21 16:00:00 18.6 17 Este 34 Sudeste 0 -- -- 23
2019-03-21 15:00:00 18.3 18 Este 41 Este 0 -- -- 28
2019-03-21 14:00:00 18.1 21 Este 38 Este 0 -- -- 37
2019-03-21 13:00:00 16.7 18 Este 34 Nordeste 0 -- -- 44
2019-03-21 12:00:00 16 13 Este 30 Este 0 -- -- 50
2019-03-21 11:00:00 14.7 14 Este 26 Este 0 -- -- 51
2019-03-21 10:00:00 12 13 Este 20 Este 0 -- -- 69
2019-03-21 09:00:00 9.7 11 Este 18 Este 0 -- -- 76
2019-03-21 08:00:00 7.4 9 Nordeste 15 Este 0 -- -- 87
2019-03-21 07:00:00 7.9 3 Este 6 Este 0 -- -- 88
2019-03-21 06:00:00 8 0 Calma 15 Sudeste 0 -- -- 87
2019-03-21 05:00:00 10.5 10 Sudeste 15 Sudeste 0 -- -- 67
2019-03-21 04:00:00 10 7 Sur 15 Sudeste 0 -- -- 71
2019-03-21 03:00:00 10.5 7 Sur 13 Sudeste 0 -- -- 71
2019-03-21 02:00:00 9.7 6 Sur 9 Sur 0 -- -- 84
2019-03-21 01:00:00 10.7 6 Sur 18 Sur 0 -- -- 81
2019-03-21 00:00:00 11.5 15 Sur 21 Sur 0 -- -- 77
2019-03-20 23:00:00 11.9 16 Sur 22 Sur 0 -- -- 78
2019-03-20 22:00:00 12.2 9 Sur 21 Sudoeste 0 -- -- 74
2019-03-20 21:00:00 12.6 16 Sudoeste 27 Sur 0 -- -- 70
2019-03-20 20:00:00 13.9 20 Sur 31 Sudoeste 0 -- -- 61
2019-03-20 19:00:00 16.9 18 Sur 25 Sur 0 -- -- 47
2019-03-20 18:00:00 18.3 14 Sudoeste 29 Sudoeste 0 -- -- 40
2019-03-20 17:00:00 19.5 11 Sur 26 Norte 0 -- -- 38
2019-03-20 16:00:00 19.7 8 Norte 23 Este 0 -- -- 28
2019-03-20 15:00:00 19.8 10 Nordeste 23 Nordeste 0 -- -- 25
2019-03-20 14:00:00 19 11 Este 29 Sudeste 0 -- -- 25
2019-03-20 13:00:00 18.8 9 Sudeste 26 Este 0 -- -- 27
2019-03-20 12:00:00 17.9 10 Este 26 Este 0 -- -- 30
2019-03-20 11:00:00 16.4 11 Este 30 Este 0 -- -- 36
2019-03-20 10:00:00 14.2 17 Este 24 Este 0 -- -- 41
2019-03-20 09:00:00 12.5 8 Este 15 Este 0 -- -- 46
2019-03-20 08:00:00 10.4 8 Este 22 Este 0 -- -- 50
2019-03-20 07:00:00 10.1 15 Este 24 Este 0 -- -- 50
2019-03-20 06:00:00 11 11 Este 18 Este 0 -- -- 48
2019-03-20 05:00:00 11.4 4 Este 10 Este 0 -- -- 48
2019-03-20 04:00:00 11.6 4 Nordeste 9 Nordeste 0 -- -- 46
2019-03-20 03:00:00 12 4 Este 11 Nordeste 0 -- -- 50
2019-03-20 02:00:00 12.2 7 Nordeste 11 Nordeste 0 -- -- 45
2019-03-20 01:00:00 12.5 6 Nordeste 15 Nordeste 0 -- -- 46
2019-03-20 00:00:00 12.8 12 Nordeste 19 Nordeste 0 -- -- 46
2019-03-19 23:00:00 13.8 15 Nordeste 21 Nordeste 0 -- -- 44
2019-03-19 22:00:00 14.6 13 Nordeste 24 Nordeste 0 -- -- 43
2019-03-19 21:00:00 15.6 15 Nordeste 24 Nordeste 0 -- -- 42
2019-03-19 20:00:00 17 13 Nordeste 27 Nordeste 0 -- -- 37
2019-03-19 19:00:00 19.4 19 Nordeste 31 Nordeste 0 -- -- 31
2019-03-19 18:00:00 20.5 22 Nordeste 32 Nordeste 0 -- -- 30
2019-03-19 17:00:00 21.6 19 Nordeste 29 Nordeste 0 -- -- 27
2019-03-19 16:00:00 21.9 8 Norte 21 Oeste 0 -- -- 27
2019-03-19 15:00:00 21.5 4 Oeste 25 Norte 0 -- -- 26
2019-03-19 14:00:00 20.4 11 Norte 26 Nordeste 0 -- -- 27
2019-03-19 13:00:00 19.9 11 Nordeste 20 Nordeste 0 -- -- 28
2019-03-19 12:00:00 18.8 8 Este 17 Nordeste 0 -- -- 31
2019-03-19 11:00:00 17.6 4 Este 11 Sudeste 0 -- -- 35
2019-03-19 10:00:00 15.8 6 Este 9 Este 0 -- -- 40
2019-03-19 09:00:00 12.2 3 Este 5 Noroeste 0 -- -- 55
2019-03-19 08:00:00 10.9 0 Calma 6 Este 0 -- -- 49
2019-03-19 07:00:00 11.1 6 Este 8 Este 0 -- -- 48
2019-03-19 06:00:00 10.9 0 Calma 7 Noroeste 0 -- -- 45
2019-03-19 05:00:00 10.2 5 Noroeste 14 Noroeste 0 -- -- 52
2019-03-19 04:00:00 12.9 4 Nordeste 10 Este 0 -- -- 41
2019-03-19 03:00:00 13.6 8 Sudeste 9 Este 0 -- -- 39
2019-03-19 02:00:00 13.3 3 Este 12 Este 0 -- -- 41
2019-03-19 01:00:00 13.4 7 Este 18 Este 0 -- -- 44
2019-03-19 00:00:00 13.2 8 Nordeste 19 Nordeste 0 -- -- 55